Time;durP1;ratioP1;P1;durP2;ratioP2;P2;SDS_P1;SDS_P2;PMS_P1;PMS_P2;Temp;Humidity;BMP_temperature;BMP_pressure;BME280_temperature;BME280_humidity;BME280_pressure;Samples;Min_cycle;Max_cycle;Signal;HPM_P1;HPM_P2
2022/03/27 00:01:43;;;;;;;15.35;2.87;;;;;;;2.33;55.08;100225.80;2164171;81;21042;-61
2022/03/27 00:04:45;;;;;;;17.27;3.15;;;;;;;2.19;55.62;100224.15;2188982;81;21470;-61
2022/03/27 00:07:46;;;;;;;17.73;3.05;;;;;;;2.11;55.32;100231.52;2188863;81;21034;-61
2022/03/27 00:13:51;;;;;;;10.25;2.27;;;;;;;1.88;56.10;100226.87;2161454;81;22151;-61
2022/03/27 00:16:53;;;;;;;12.35;2.58;;;;;;;1.93;55.94;100223.41;2188833;81;20975;-61
2022/03/27 00:19:54;;;;;;;15.98;2.87;;;;;;;1.88;56.20;100229.87;2188695;81;21007;-61
2022/03/27 00:22:56;;;;;;;16.97;2.90;;;;;;;1.83;56.03;100233.77;2189050;81;20967;-61
2022/03/27 00:25:58;;;;;;;16.07;2.93;;;;;;;1.80;56.19;100237.66;2189174;81;21026;-61
2022/03/27 00:28:59;;;;;;;14.53;2.92;;;;;;;1.73;56.29;100235.52;2188468;81;21061;-61
2022/03/27 00:32:00;;;;;;;13.13;2.60;;;;;;;1.58;56.54;100238.56;2188893;81;21014;-61
2022/03/27 00:35:02;;;;;;;14.45;2.98;;;;;;;1.45;56.71;100249.36;2189294;81;21489;-61
2022/03/27 00:38:04;;;;;;;15.80;3.10;;;;;;;1.45;56.75;100244.19;2189240;81;21015;-61
2022/03/27 00:41:05;;;;;;;16.27;2.90;;;;;;;1.38;56.87;100248.52;2189393;81;21714;-61
2022/03/27 00:44:07;;;;;;;13.62;2.87;;;;;;;1.31;57.10;100251.97;2189082;81;20995;-61
2022/03/27 00:47:09;;;;;;;14.13;3.00;;;;;;;1.01;57.48;100249.80;2189413;81;21013;-61
2022/03/27 00:50:10;;;;;;;11.43;2.65;;;;;;;0.69;57.98;100246.75;2189001;81;21033;-61
2022/03/27 00:53:12;;;;;;;14.23;2.80;;;;;;;0.52;57.95;100246.70;2189295;81;20943;-61
2022/03/27 00:56:14;;;;;;;11.12;2.37;;;;;;;0.36;58.58;100251.38;2188824;81;21232;-61
2022/03/27 00:59:15;;;;;;;12.37;2.27;;;;;;;0.26;59.47;100254.34;2189136;81;21482;-61
2022/03/27 01:02:16;;;;;;;16.90;2.47;;;;;;;0.13;59.63;100258.18;2179879;81;21038;-61
2022/03/27 01:05:18;;;;;;;14.40;2.83;;;;;;;0.05;59.57;100257.71;2159254;82;21498;-61
2022/03/27 01:09:35;;;;;;;12.75;2.75;;;;;;;-0.06;59.78;100257.23;2159008;82;21011;-61
2022/03/27 01:11:23;;;;;;;15.53;2.60;;;;;;;-0.17;60.26;100257.60;2138449;82;20988;-61
2022/03/27 01:14:25;;;;;;;14.60;2.98;;;;;;;-0.15;60.64;100263.62;2158995;81;21522;-61
2022/03/27 01:17:27;;;;;;;13.32;2.95;;;;;;;-0.20;61.05;100261.45;2159014;82;20972;-61
2022/03/27 01:20:29;;;;;;;16.40;2.98;;;;;;;-0.34;61.07;100267.81;2159009;82;21467;-61
2022/03/27 01:23:30;;;;;;;22.07;3.30;;;;;;;-0.49;61.67;100269.84;2158898;82;21063;-61
2022/03/27 01:26:32;;;;;;;13.90;2.42;;;;;;;-0.59;61.85;100283.52;2158868;81;21463;-61
2022/03/27 01:29:34;;;;;;;14.58;2.95;;;;;;;-0.57;61.53;100285.70;2158797;82;21042;-61
2022/03/27 01:32:35;;;;;;;17.77;3.20;;;;;;;-0.65;61.49;100279.61;2158951;82;20983;-61
2022/03/27 01:35:37;;;;;;;19.48;3.22;;;;;;;-0.61;61.79;100282.22;2159113;82;21051;-61
2022/03/27 01:38:38;;;;;;;17.75;3.27;;;;;;;-0.37;61.43;100285.41;2158860;82;21011;-61
2022/03/27 01:41:40;;;;;;;12.40;3.25;;;;;;;-0.21;61.20;100285.52;2159025;82;21470;-61
2022/03/27 01:44:41;;;;;;;17.55;3.22;;;;;;;-0.24;61.06;100292.80;2158718;81;21004;-61
2022/03/27 01:47:42;;;;;;;19.85;3.77;;;;;;;-0.24;61.01;100291.51;2158709;82;21471;-61
2022/03/27 01:50:44;;;;;;;18.85;3.67;;;;;;;-0.21;61.04;100293.25;2158703;82;21047;-61
2022/03/27 01:53:45;;;;;;;18.77;3.25;;;;;;;-0.14;60.89;100296.30;2158629;82;21032;-61
2022/03/27 01:56:47;;;;;;;23.38;4.03;;;;;;;-0.15;60.90;100297.15;2158789;82;20963;-61
2022/03/27 01:59:48;;;;;;;20.20;3.73;;;;;;;-0.16;60.87;100301.86;2158594;82;20988;-61
2022/03/27 02:02:52;;;;;;;20.45;3.80;;;;;;;-0.19;60.95;100305.31;2158699;82;21285;-61
2022/03/27 02:05:53;;;;;;;21.60;4.00;;;;;;;-0.15;60.94;100306.61;2138347;82;20976;-61
2022/03/27 02:08:54;;;;;;;19.40;4.40;;;;;;;-0.03;60.46;100301.52;2158794;82;21051;-61
2022/03/27 02:11:56;;;;;;;21.93;4.83;;;;;;;-0.02;60.32;100307.11;2158988;82;21060;-61
2022/03/27 02:14:58;;;;;;;22.07;6.00;;;;;;;-0.12;60.35;100308.77;2158645;81;21630;-61
2022/03/27 02:18:01;;;;;;;22.80;5.60;;;;;;;-0.14;60.43;100309.20;2158758;81;20948;-61
2022/03/27 02:21:03;;;;;;;25.10;5.67;;;;;;;-0.13;60.22;100310.05;2138396;82;21003;-61
2022/03/27 02:24:04;;;;;;;24.43;6.63;;;;;;;-0.23;60.26;100312.98;2159048;82;20964;-61
2022/03/27 02:27:06;;;;;;;22.62;5.53;;;;;;;-0.38;60.63;100312.47;2158804;82;21463;-61
2022/03/27 02:30:07;;;;;;;25.27;5.62;;;;;;;-0.42;60.74;100314.58;2158855;82;21031;-61
2022/03/27 02:33:09;;;;;;;22.70;5.25;;;;;;;-0.50;60.76;100319.69;2158747;82;20983;-61
2022/03/27 02:36:10;;;;;;;25.92;6.33;;;;;;;-0.63;61.05;100319.13;2158998;82;20952;-61
2022/03/27 02:39:11;;;;;;;23.73;6.58;;;;;;;-0.69;61.42;100321.23;2158740;82;21016;-61
2022/03/27 02:42:13;;;;;;;24.40;5.95;;;;;;;-0.72;61.31;100316.94;2158915;82;20976;-61
2022/03/27 02:45:15;;;;;;;30.65;8.18;;;;;;;-0.81;61.73;100320.70;2158777;82;21051;-61
2022/03/27 02:48:17;;;;;;;39.15;11.90;;;;;;;-0.83;61.76;100321.13;2159029;82;20995;-61
2022/03/27 02:51:18;;;;;;;33.60;9.63;;;;;;;-0.84;61.90;100331.42;2158536;82;21088;-61
2022/03/27 02:54:20;;;;;;;29.67;7.05;;;;;;;-0.83;61.81;100331.83;2158740;82;21451;-61
2022/03/27 02:57:21;;;;;;;26.15;6.85;;;;;;;-0.83;62.16;100332.72;2158810;82;20975;-61
2022/03/27 03:00:23;;;;;;;26.25;6.47;;;;;;;-0.82;62.10;100326.72;2158804;82;21482;-61
2022/03/27 03:03:25;;;;;;;24.77;6.10;;;;;;;-0.91;62.24;100335.20;2158667;81;21011;-61
2022/03/27 03:06:26;;;;;;;28.83;5.95;;;;;;;-0.87;62.05;100340.83;2159002;82;21506;-61
2022/03/27 03:09:28;;;;;;;26.77;6.87;;;;;;;-0.92;61.99;100336.47;2158768;82;20968;-61
2022/03/27 03:12:30;;;;;;;33.45;8.20;;;;;;;-1.00;62.04;100340.27;2158505;82;21027;-61
2022/03/27 03:15:32;;;;;;;32.95;8.60;;;;;;;-0.95;62.34;100338.63;2158460;82;21047;-61
2022/03/27 03:18:34;;;;;;;39.78;10.20;;;;;;;-0.96;62.39;100347.59;2158654;82;21043;-61
2022/03/27 03:21:35;;;;;;;43.80;10.58;;;;;;;-0.98;62.42;100348.02;2158853;82;21024;-61
2022/03/27 03:24:37;;;;;;;35.77;9.17;;;;;;;-1.03;62.37;100348.38;2158979;82;21000;-61
2022/03/27 03:27:39;;;;;;;30.75;8.35;;;;;;;-1.00;62.44;100351.86;2158984;82;20984;-61
2022/03/27 03:30:40;;;;;;;34.65;8.63;;;;;;;-1.09;62.60;100355.64;2158715;82;20960;-61
2022/03/27 03:33:42;;;;;;;31.70;8.28;;;;;;;-1.05;62.76;100351.82;2158716;82;20992;-61
2022/03/27 03:36:43;;;;;;;35.65;9.98;;;;;;;-0.96;62.80;100355.32;2158739;82;21004;-61
2022/03/27 03:39:44;;;;;;;36.98;10.30;;;;;;;-0.73;62.29;100356.86;2158965;82;21590;-61
2022/03/27 03:42:46;;;;;;;31.48;8.73;;;;;;;-0.79;62.48;100358.95;2158582;82;20983;-61
2022/03/27 03:45:48;;;;;;;31.52;7.92;;;;;;;-0.87;62.43;100360.14;2158612;82;21463;-61
2022/03/27 03:48:50;;;;;;;30.60;8.85;;;;;;;-0.98;62.42;100363.47;2158343;82;20988;-61
2022/03/27 03:51:52;;;;;;;33.80;7.12;;;;;;;-1.07;62.79;100361.66;2158912;82;21499;-61
2022/03/27 03:54:53;;;;;;;27.75;7.67;;;;;;;-1.08;62.85;100371.11;2158826;82;21098;-61
2022/03/27 03:57:57;;;;;;;32.50;8.00;;;;;;;-1.03;62.93;100370.27;2158965;82;21000;-61
2022/03/27 04:00:58;;;;;;;34.33;9.03;;;;;;;-1.11;62.88;100383.08;2158660;82;20991;-61
2022/03/27 04:04:00;;;;;;;32.08;9.00;;;;;;;-1.24;62.69;100383.35;2177556;81;20975;-61
2022/03/27 04:07:02;;;;;;;30.97;7.97;;;;;;;-1.29;63.04;100386.31;2188900;81;20998;-61
2022/03/27 04:10:03;;;;;;;30.80;7.58;;;;;;;-1.32;63.00;100388.42;2188754;81;21054;-61
2022/03/27 04:13:05;;;;;;;33.25;9.13;;;;;;;-1.29;62.87;100385.87;2188923;81;20978;-61
2022/03/27 04:16:07;;;;;;;30.57;7.97;;;;;;;-1.34;63.34;100382.80;2188610;81;20974;-61
2022/03/27 04:19:08;;;;;;;32.40;8.23;;;;;;;-1.38;63.67;100391.33;2188846;81;20982;-61
2022/03/27 04:22:10;;;;;;;32.13;9.50;;;;;;;-1.38;63.82;100398.61;2188903;81;21043;-61
2022/03/27 04:25:11;;;;;;;31.75;9.60;;;;;;;-1.28;63.96;100400.48;2188957;81;21011;-61
2022/03/27 04:28:13;;;;;;;29.57;9.65;;;;;;;-1.20;63.53;100399.28;2188699;81;20967;-61
2022/03/27 04:31:14;;;;;;;31.75;8.90;;;;;;;-1.13;63.60;100398.51;2188805;81;21033;-61
2022/03/27 04:34:16;;;;;;;31.45;8.95;;;;;;;-1.16;63.48;100397.19;2188506;81;21075;-61
2022/03/27 04:37:18;;;;;;;31.33;8.65;;;;;;;-1.13;63.43;100400.23;2188929;81;20979;-61
2022/03/27 04:40:19;;;;;;;39.20;9.80;;;;;;;-1.23;63.40;100402.68;2188541;81;20971;-61
2022/03/27 04:43:22;;;;;;;32.23;9.20;;;;;;;-1.23;63.74;100404.40;2188539;81;21545;-61
2022/03/27 04:46:24;;;;;;;29.92;8.70;;;;;;;-1.19;63.40;100397.56;2188782;81;21047;-61
2022/03/27 04:49:26;;;;;;;38.10;9.55;;;;;;;-1.25;63.33;100403.09;2188365;81;21079;-61
2022/03/27 04:52:28;;;;;;;42.15;11.70;;;;;;;-1.32;63.68;100400.41;2188787;81;21006;-61
2022/03/27 04:55:29;;;;;;;39.30;11.97;;;;;;;-1.29;63.74;100403.90;2188930;81;21050;-61
2022/03/27 04:58:31;;;;;;;42.58;12.93;;;;;;;-1.22;63.83;100406.99;2188942;81;20978;-61
2022/03/27 05:01:32;;;;;;;44.58;13.80;;;;;;;-1.15;63.99;100407.94;2188706;81;20996;-61
2022/03/27 05:04:34;;;;;;;55.98;15.93;;;;;;;-1.05;63.75;100408.48;2188613;81;21517;-61
2022/03/27 05:07:35;;;;;;;48.20;15.20;;;;;;;-0.96;63.67;100414.16;2188698;81;21046;-61
2022/03/27 05:10:36;;;;;;;49.93;16.20;;;;;;;-0.70;63.88;100406.70;2188665;81;21496;-61
2022/03/27 05:13:38;;;;;;;55.33;16.83;;;;;;;-0.39;63.14;100412.17;2188869;81;21070;-61
2022/03/27 05:16:39;;;;;;;65.67;22.27;;;;;;;-0.32;62.58;100412.22;2188567;81;21050;-61
2022/03/27 05:19:41;;;;;;;72.78;23.73;;;;;;;-0.21;62.73;100415.76;2188873;81;20967;-60
2022/03/27 05:22:43;;;;;;;77.40;25.00;;;;;;;0.02;62.78;100416.37;2188830;81;21022;-61
2022/03/27 05:25:48;;;;;;;63.87;23.47;;;;;;;0.30;63.04;100424.74;2189117;81;21025;-61
2022/03/27 05:28:48;;;;;;;58.68;21.45;;;;;;;0.64;62.75;100424.06;2161910;81;20963;-60
2022/03/27 05:31:51;;;;;;;55.70;20.12;;;;;;;1.00;62.25;100429.80;2188760;81;21038;-61
2022/03/27 05:34:53;;;;;;;56.33;18.65;;;;;;;1.12;62.22;100440.64;2161561;81;20971;-60
2022/03/27 05:37:54;;;;;;;49.60;16.82;;;;;;;1.44;62.58;100437.69;2188961;81;21037;-61
2022/03/27 05:40:56;;;;;;;44.10;15.13;;;;;;;1.79;62.25;100434.30;2188738;81;21018;-61
2022/03/27 05:43:58;;;;;;;39.08;14.00;;;;;;;2.15;62.10;100433.87;2188841;81;21018;-61
2022/03/27 05:46:59;;;;;;;37.38;12.30;;;;;;;2.52;61.73;100438.55;2188831;81;20979;-61
2022/03/27 05:50:00;;;;;;;37.10;11.83;;;;;;;2.91;61.30;100438.00;2188692;81;21533;-61
2022/03/27 05:53:02;;;;;;;33.38;11.70;;;;;;;3.24;61.18;100437.41;2188645;81;21034;-61
2022/03/27 05:56:03;;;;;;;31.97;9.08;;;;;;;3.49;60.38;100447.64;2188718;81;20986;-61
2022/03/27 05:59:05;;;;;;;28.23;8.17;;;;;;;3.53;59.45;100449.80;2188766;81;21033;-61
2022/03/27 06:02:07;;;;;;;25.20;6.50;;;;;;;3.56;59.84;100446.77;2188786;81;21312;-61
2022/03/27 06:05:08;;;;;;;24.52;6.47;;;;;;;3.62;59.37;100451.03;2163862;81;21006;-61
2022/03/27 06:08:10;;;;;;;23.60;6.00;;;;;;;3.71;60.13;100445.80;2158701;82;20988;-61
2022/03/27 06:11:11;;;;;;;20.68;4.92;;;;;;;4.03;60.22;100453.77;2158903;82;21003;-61
2022/03/27 06:14:13;;;;;;;20.88;4.65;;;;;;;4.04;58.20;100461.11;2158770;82;21075;-61
2022/03/27 06:17:15;;;;;;;20.65;4.42;;;;;;;4.08;56.87;100466.30;2158945;82;21515;-61
2022/03/27 06:20:16;;;;;;;18.77;4.72;;;;;;;4.07;57.67;100468.45;2158699;82;20984;-61
2022/03/27 06:23:18;;;;;;;20.57;4.77;;;;;;;4.14;57.14;100469.27;2158897;82;21490;-61
2022/03/27 06:26:19;;;;;;;19.82;4.58;;;;;;;4.27;57.17;100469.59;2158590;82;21926;-61
2022/03/27 06:29:21;;;;;;;18.57;4.47;;;;;;;4.39;55.85;100476.40;2158390;82;21003;-61
2022/03/27 06:32:26;;;;;;;18.82;3.85;;;;;;;4.55;56.86;100465.86;2158906;82;21086;-61
2022/03/27 06:35:27;;;;;;;17.55;4.33;;;;;;;4.74;56.29;100469.12;2138751;82;20991;-61
2022/03/27 06:38:28;;;;;;;17.33;4.33;;;;;;;4.86;55.07;100472.45;2158981;82;21035;-61
2022/03/27 06:41:30;;;;;;;20.00;4.30;;;;;;;4.91;55.46;100476.30;2159087;82;21032;-62
2022/03/27 06:44:31;;;;;;;18.75;3.87;;;;;;;4.97;55.18;100479.27;2158617;82;21026;-61
2022/03/27 06:47:33;;;;;;;17.95;3.70;;;;;;;5.18;53.76;100487.27;2158977;82;21015;-61
2022/03/27 06:50:35;;;;;;;18.77;4.20;;;;;;;5.29;53.01;100498.40;2158866;82;21044;-61
2022/03/27 06:53:36;;;;;;;22.07;4.40;;;;;;;5.48;51.32;100507.27;2158518;81;21499;-61
2022/03/27 06:56:41;;;;;;;21.03;4.23;;;;;;;5.60;51.00;100496.67;2159053;82;20984;-61
2022/03/27 07:05:48;;;;;;;17.70;3.75;;;;;;;5.75;47.60;100508.64;2151758;82;21534;-61
2022/03/27 07:08:50;;;;;;;12.85;3.20;;;;;;;5.96;49.78;100511.37;2179251;82;21027;-61
2022/03/27 07:11:51;;;;;;;13.18;3.37;;;;;;;6.21;47.69;100521.44;2179079;82;21546;-61
2022/03/27 07:14:53;;;;;;;16.85;3.95;;;;;;;6.18;46.89;100513.69;2179244;82;21067;-61
2022/03/27 07:17:55;;;;;;;15.70;2.95;;;;;;;6.33;46.72;100517.77;2179187;82;21031;-61
2022/03/27 07:20:57;;;;;;;13.60;3.30;;;;;;;6.46;46.78;100516.67;2179005;82;21110;-61
2022/03/27 07:24:00;;;;;;;12.20;2.83;;;;;;;6.53;45.03;100526.11;2179343;82;21525;-61
2022/03/27 07:27:02;;;;;;;16.05;3.08;;;;;;;6.64;43.58;100522.44;2179112;82;21067;-61
2022/03/27 07:30:04;;;;;;;;;;;;;;;6.72;45.41;100513.62;2181647;82;21099;-61
2022/03/27 07:33:06;;;;;;;13.22;2.67;;;;;;;6.93;46.27;100515.41;2178787;82;20110;-61
2022/03/27 07:36:08;;;;;;;12.63;2.83;;;;;;;6.94;44.98;100509.31;2179090;82;20990;-61
2022/03/27 07:39:11;;;;;;;13.90;2.42;;;;;;;7.21;44.03;100510.52;2178789;82;21022;-61
2022/03/27 07:42:14;;;;;;;9.63;2.55;;;;;;;7.45;43.03;100506.52;2179028;82;20947;-61
2022/03/27 07:45:18;;;;;;;13.68;2.80;;;;;;;7.62;40.97;100500.08;2152012;82;21057;-61
2022/03/27 07:48:19;;;;;;;12.03;2.58;;;;;;;7.48;39.38;100521.72;2151906;82;21019;-61
2022/03/27 07:51:20;;;;;;;10.38;2.50;;;;;;;7.40;42.25;100518.83;2179244;82;21074;-61
2022/03/27 07:54:22;;;;;;;13.13;2.60;;;;;;;7.48;40.32;100519.95;2179090;82;21051;-61
2022/03/27 07:57:24;;;;;;;12.18;2.47;;;;;;;7.68;41.06;100512.99;2179544;82;21593;-61
2022/03/27 08:00:27;;;;;;;10.38;1.72;;;;;;;7.88;39.23;100519.08;2179172;82;21047;-61
2022/03/27 08:03:28;;;;;;;7.05;2.02;;;;;;;7.99;39.35;100496.63;2149644;81;21146;-61
2022/03/27 08:06:31;;;;;;;10.20;1.93;;;;;;;8.13;39.71;100489.75;2158781;82;21551;-61
2022/03/27 08:09:33;;;;;;;11.10;2.08;;;;;;;8.27;36.54;100493.34;2158559;82;20996;-61
2022/03/27 08:12:35;;;;;;;10.48;1.92;;;;;;;8.24;34.73;100489.04;2158938;82;20999;-61
2022/03/27 08:15:37;;;;;;;7.95;1.87;;;;;;;8.33;34.66;100491.44;2158632;82;21566;-61
2022/03/27 08:18:39;;;;;;;7.62;2.00;;;;;;;8.40;36.43;100481.66;2158981;82;20984;-61
2022/03/27 08:21:41;;;;;;;10.95;2.22;;;;;;;8.57;34.99;100498.73;2158775;82;21474;-61
2022/03/27 08:24:42;;;;;;;9.13;1.65;;;;;;;8.61;35.48;100489.91;2158844;82;20971;-61
2022/03/27 08:27:44;;;;;;;7.03;2.00;;;;;;;8.59;35.50;100497.80;2158850;81;21493;-61
2022/03/27 08:30:46;;;;;;;12.18;2.80;;;;;;;8.63;34.20;100498.55;2158645;82;21039;-61
2022/03/27 08:33:48;;;;;;;9.73;2.27;;;;;;;8.57;34.98;100494.80;2159206;82;21525;-61
2022/03/27 08:36:50;;;;;;;10.18;1.85;;;;;;;8.63;33.75;100496.82;2158686;82;21023;-61
2022/03/27 08:39:53;;;;;;;11.67;2.07;;;;;;;8.81;34.63;100503.30;2158754;82;21080;-61
2022/03/27 08:42:55;;;;;;;7.17;1.70;;;;;;;9.04;34.35;100504.87;2158463;82;21510;-61
2022/03/27 08:45:56;;;;;;;12.35;2.42;;;;;;;9.19;32.08;100493.97;2158958;82;20949;-61
2022/03/27 08:48:58;;;;;;;8.73;1.87;;;;;;;9.10;33.31;100498.17;2158795;82;21000;-61
2022/03/27 08:52:00;;;;;;;;;;;;;;;8.95;32.72;100511.22;2160920;81;21531;-61
2022/03/27 08:55:01;;;;;;;9.25;1.70;;;;;;;9.05;33.17;100500.92;2158737;82;20099;-61
2022/03/27 08:58:03;;;;;;;8.80;1.90;;;;;;;9.10;32.80;100504.72;2158777;82;21522;-61
2022/03/27 09:01:04;;;;;;;9.20;2.27;;;;;;;9.09;31.92;100517.39;2158866;82;20984;-61
2022/03/27 09:04:06;;;;;;;12.90;1.80;;;;;;;9.22;32.26;100515.28;2159124;81;21511;-61
2022/03/27 09:07:07;;;;;;;9.93;1.90;;;;;;;9.31;31.35;100505.84;2159016;82;21202;-61
2022/03/27 09:10:09;;;;;;;7.97;1.90;;;;;;;9.31;31.87;100504.53;2158485;82;21003;-61
2022/03/27 09:13:11;;;;;;;7.75;1.77;;;;;;;9.30;31.49;100514.16;2158960;82;21015;-61
2022/03/27 09:16:13;;;;;;;8.83;1.95;;;;;;;9.40;31.29;100503.44;2158922;82;21514;-61
2022/03/27 09:19:14;;;;;;;10.63;1.70;;;;;;;9.62;31.98;100507.57;2159166;82;21047;-61
2022/03/27 09:22:16;;;;;;;7.70;1.85;;;;;;;9.65;31.47;100493.91;2158941;82;21035;-61
2022/03/27 09:25:18;;;;;;;8.03;1.98;;;;;;;9.93;30.72;100503.98;2159053;82;20984;-61
2022/03/27 09:28:19;;;;;;;9.05;1.82;;;;;;;10.10;31.77;100500.40;2158951;82;20975;-61
2022/03/27 09:31:21;;;;;;;9.13;1.87;;;;;;;10.01;30.73;100501.98;2159073;82;20999;-61
2022/03/27 09:34:23;;;;;;;10.18;2.37;;;;;;;9.70;29.59;100488.09;2158877;82;21020;-61
2022/03/27 09:37:24;;;;;;;10.25;2.10;;;;;;;9.67;29.97;100477.71;2158816;82;21059;-61
2022/03/27 09:40:25;;;;;;;13.28;2.77;;;;;;;9.84;31.07;100487.67;2158685;82;20959;-61
2022/03/27 09:43:27;;;;;;;7.45;1.67;;;;;;;9.99;29.85;100487.63;2158953;82;20988;-61
2022/03/27 09:46:29;;;;;;;6.28;2.05;;;;;;;10.20;31.76;100479.95;2159060;82;21023;-61
2022/03/27 09:49:30;;;;;;;11.83;2.63;;;;;;;10.43;30.32;100474.43;2158978;82;21539;-61
2022/03/27 09:52:33;;;;;;;8.07;2.00;;;;;;;10.58;29.50;100469.98;2159107;81;20968;-61
2022/03/27 09:55:35;;;;;;;9.03;2.00;;;;;;;10.61;27.81;100472.48;2158842;82;21018;-61
2022/03/27 09:58:36;;;;;;;9.20;1.90;;;;;;;10.19;28.39;100470.39;2159098;82;21023;-61
2022/03/27 10:01:38;;;;;;;11.45;2.17;;;;;;;10.20;29.51;100469.03;2158897;82;20976;-61
2022/03/27 10:04:40;;;;;;;7.67;1.90;;;;;;;10.44;30.83;100470.91;2169301;81;21042;-61
2022/03/27 10:07:41;;;;;;;7.00;1.80;;;;;;;10.75;30.41;100455.80;2189097;81;21236;-61
2022/03/27 10:10:43;;;;;;;7.25;1.60;;;;;;;10.61;28.22;100462.45;2188876;81;21070;-61
2022/03/27 10:13:46;;;;;;;9.28;2.05;;;;;;;10.69;30.27;100457.34;2189060;81;20994;-61
2022/03/27 10:16:48;;;;;;;9.28;2.12;;;;;;;10.81;27.12;100456.50;2188719;81;21038;-61
2022/03/27 10:19:50;;;;;;;9.00;1.87;;;;;;;10.72;28.65;100450.66;2188962;81;21019;-62
2022/03/27 10:22:51;;;;;;;9.23;1.60;;;;;;;10.76;28.83;100436.99;2188811;81;21041;-61
2022/03/27 10:25:53;;;;;;;12.65;2.15;;;;;;;10.77;29.79;100432.59;2189220;81;21014;-61
2022/03/27 10:28:55;;;;;;;7.62;1.77;;;;;;;11.02;27.79;100433.84;2188885;81;21039;-61
2022/03/27 10:31:56;;;;;;;7.45;1.70;;;;;;;10.76;30.49;100427.80;2188856;81;21025;-61
2022/03/27 10:34:59;;;;;;;11.13;2.20;;;;;;;10.89;30.34;100434.78;2188938;81;20931;-61
2022/03/27 10:38:00;;;;;;;8.73;1.98;;;;;;;10.82;27.55;100430.63;2188913;81;20975;-62
2022/03/27 10:41:02;;;;;;;10.82;2.33;;;;;;;10.67;28.50;100435.52;2188955;81;21003;-61
2022/03/27 10:44:03;;;;;;;9.45;2.05;;;;;;;10.70;27.86;100418.82;2189282;81;21002;-61
2022/03/27 10:47:05;;;;;;;8.73;2.30;;;;;;;10.12;28.00;100429.55;2188397;81;21014;-61
2022/03/27 10:50:08;;;;;;;14.67;3.00;;;;;;;10.18;28.56;100407.90;2188752;81;21561;-61
2022/03/27 10:53:10;;;;;;;12.78;2.70;;;;;;;10.25;27.64;100406.40;2188704;81;20999;-62
2022/03/27 10:56:12;;;;;;;10.35;2.35;;;;;;;10.33;29.49;100407.84;2188880;81;20971;-62
2022/03/27 10:59:13;;;;;;;13.30;2.87;;;;;;;11.00;28.96;100397.14;2188827;81;21066;-61
2022/03/27 11:02:14;;;;;;;9.60;2.30;;;;;;;11.57;28.30;100397.56;2188504;81;20999;-61
2022/03/27 11:05:16;;;;;;;12.80;2.15;;;;;;;11.60;26.40;100408.42;2174124;81;21035;-62
2022/03/27 11:08:18;;;;;;;13.10;2.43;;;;;;;11.49;28.73;100396.16;2159168;82;20992;-62
2022/03/27 11:11:19;;;;;;;14.47;2.60;;;;;;;11.44;26.65;100412.96;2158918;82;21020;-62
2022/03/27 11:14:21;;;;;;;13.85;2.50;;;;;;;11.29;27.95;100398.26;2158667;82;21460;-62
2022/03/27 11:17:22;;;;;;;11.85;2.37;;;;;;;11.42;28.14;100386.34;2158888;82;20984;-62
2022/03/27 11:20:24;;;;;;;9.68;2.17;;;;;;;11.79;28.25;100384.86;2158849;82;21549;-62
2022/03/27 11:23:25;;;;;;;11.30;1.92;;;;;;;11.86;26.46;100403.41;2158878;82;20980;-62
2022/03/27 11:26:29;;;;;;;10.00;1.92;;;;;;;11.65;28.19;100395.09;2158557;82;21040;-62
2022/03/27 11:29:33;;;;;;;10.32;2.35;;;;;;;11.70;26.61;100392.67;2138300;82;21556;-62
2022/03/27 11:32:33;;;;;;;9.35;1.82;;;;;;;11.92;26.53;100383.46;2138408;82;21507;-61
2022/03/27 11:35:35;;;;;;;12.10;2.20;;;;;;;11.89;26.97;100382.25;2158980;82;21023;-62
2022/03/27 11:38:36;;;;;;;8.53;2.50;;;;;;;11.92;26.57;100367.69;2158742;82;21579;-62
2022/03/27 11:41:42;;;;;;;9.20;2.20;;;;;;;12.04;26.78;100359.76;2158805;82;21011;-62
2022/03/27 11:47:45;;;;;;;7.87;2.40;;;;;;;12.34;27.88;100371.20;2138228;82;20991;-62
2022/03/27 11:50:46;;;;;;;10.13;2.15;;;;;;;12.27;26.71;100364.02;2158865;82;21027;-62
2022/03/27 11:53:48;;;;;;;12.43;2.40;;;;;;;12.29;27.36;100354.27;2158634;82;21008;-62
2022/03/27 11:56:49;;;;;;;10.93;2.30;;;;;;;12.46;27.75;100339.06;2159262;81;21475;-62
2022/03/27 11:59:51;;;;;;;11.90;2.30;;;;;;;12.72;26.54;100329.61;2159216;82;21007;-62
2022/03/27 12:02:52;;;;;;;10.10;2.27;;;;;;;12.62;27.28;100333.95;2158946;82;20969;-62
2022/03/27 12:05:54;;;;;;;13.17;2.30;;;;;;;12.35;26.51;100337.37;2158880;82;21546;-62
2022/03/27 12:08:56;;;;;;;7.90;2.15;;;;;;;12.25;27.15;100333.44;2158690;82;20984;-62
2022/03/27 12:11:57;;;;;;;12.47;2.25;;;;;;;12.35;27.42;100324.69;2158814;82;20991;-62
2022/03/27 12:15:00;;;;;;;10.07;1.90;;;;;;;13.13;28.04;100314.94;2158816;82;20956;-62
2022/03/27 12:21:05;;;;;;;11.12;2.10;;;;;;;14.05;25.44;100301.64;2138063;82;21034;-62
2022/03/27 12:24:07;;;;;;;10.15;2.08;;;;;;;13.78;26.07;100322.37;2158529;82;21509;-62
2022/03/27 12:30:12;;;;;;;10.00;2.33;;;;;;;13.42;25.54;100306.11;2138056;82;21000;-62
2022/03/27 12:33:14;;;;;;;9.05;2.30;;;;;;;13.16;25.80;100306.44;2159090;82;21530;-62
2022/03/27 12:36:16;;;;;;;12.53;2.47;;;;;;;12.82;26.71;100305.87;2158814;82;20999;-62
2022/03/27 12:39:17;;;;;;;9.73;2.20;;;;;;;12.64;26.99;100308.88;2158947;82;21479;-62
2022/03/27 12:42:19;;;;;;;9.50;2.13;;;;;;;12.54;26.31;100308.47;2158828;82;21006;-62
2022/03/27 12:45:22;;;;;;;10.95;2.20;;;;;;;12.48;25.64;100291.19;2138129;82;21442;-62
2022/03/27 12:48:25;;;;;;;9.20;2.15;;;;;;;12.69;27.13;100294.22;2158945;82;21091;-62
2022/03/27 12:51:27;;;;;;;11.45;2.08;;;;;;;13.32;27.97;100282.83;2158611;82;21032;-62
2022/03/27 12:54:30;;;;;;;12.50;2.37;;;;;;;13.85;26.36;100282.41;2158621;82;21023;-62
2022/03/27 12:57:32;;;;;;;9.53;2.12;;;;;;;13.94;26.26;100282.88;2158584;82;21019;-62
2022/03/27 13:00:34;;;;;;;13.37;2.37;;;;;;;13.91;25.13;100269.85;2158785;82;21007;-62
2022/03/27 13:03:36;;;;;;;;;;;;;;;13.74;25.12;100285.22;2161177;82;21027;-62
2022/03/27 13:06:37;;;;;;;10.32;2.47;;;;;;;13.51;25.58;100280.16;2181895;81;20110;-62
2022/03/27 13:09:39;;;;;;;10.03;2.13;;;;;;;13.46;25.91;100271.64;2188809;81;21002;-62
2022/03/27 13:12:40;;;;;;;11.73;1.93;;;;;;;13.57;25.48;100266.30;2188924;81;21517;-62
2022/03/27 13:15:41;;;;;;;7.83;2.17;;;;;;;13.85;24.96;100260.47;2188753;81;20947;-62
2022/03/27 13:18:43;;;;;;;7.83;2.17;;;;;;;13.97;25.29;100257.66;2188805;81;21051;-62
2022/03/27 13:21:44;;;;;;;11.00;1.90;;;;;;;14.30;24.72;100250.20;2188772;81;21043;-62
2022/03/27 13:24:46;;;;;;;11.85;2.15;;;;;;;14.30;24.83;100256.32;2188706;81;20994;-62
2022/03/27 13:27:47;;;;;;;12.87;2.47;;;;;;;14.18;24.60;100243.80;2188922;81;20963;-62
2022/03/27 13:30:49;;;;;;;11.40;2.20;;;;;;;14.13;23.94;100243.19;2188733;81;20994;-62
2022/03/27 13:33:51;;;;;;;10.68;2.10;;;;;;;14.08;24.05;100237.29;2188958;81;20979;-62
2022/03/27 13:36:52;;;;;;;10.40;2.05;;;;;;;14.02;24.43;100241.10;2188786;81;20976;-62
2022/03/27 13:39:54;;;;;;;13.33;2.07;;;;;;;13.85;24.41;100240.22;2189331;81;21427;-62
2022/03/27 13:45:59;;;;;;;8.75;1.90;;;;;;;14.00;24.72;100225.84;2161510;81;20971;-62
2022/03/27 13:49:00;;;;;;;9.67;2.10;;;;;;;14.18;25.13;100231.93;2189287;81;21470;-61
2022/03/27 13:52:01;;;;;;;9.50;2.30;;;;;;;14.25;24.04;100225.84;2188876;81;20989;-62
2022/03/27 13:55:03;;;;;;;12.23;2.43;;;;;;;13.97;24.01;100222.05;2188951;81;21017;-62
2022/03/27 13:58:04;;;;;;;8.10;2.10;;;;;;;13.72;23.83;100218.51;2189100;81;21149;-62
2022/03/27 14:01:06;;;;;;;9.55;2.20;;;;;;;14.10;25.85;100212.53;2143952;83;21023;-62
2022/03/27 14:04:08;;;;;;;8.83;2.00;;;;;;;13.94;23.57;100208.55;2144353;83;21547;-62
2022/03/27 14:07:09;;;;;;;9.03;2.10;;;;;;;13.81;23.63;100207.02;2138038;83;21020;-62
2022/03/27 14:10:11;;;;;;;12.58;1.90;;;;;;;13.59;23.64;100204.66;2137031;83;21558;-62
2022/03/27 14:13:13;;;;;;;6.85;2.00;;;;;;;13.65;24.35;100197.74;2182192;81;20981;-61
2022/03/27 14:16:14;;;;;;;10.93;2.40;;;;;;;13.57;23.30;100195.96;2181980;82;21592;-62
2022/03/27 14:19:17;;;;;;;8.53;2.13;;;;;;;13.44;23.49;100202.80;2180900;82;21047;-62
2022/03/27 14:22:18;;;;;;;11.60;2.00;;;;;;;13.24;24.51;100198.51;2181723;82;21496;-62